createdAt,value
2019-01-26T00:01:47.019Z,18.77
2019-01-26T00:04:27.023Z,16.87
2019-01-26T00:07:07.241Z,14.87
2019-01-26T00:09:47.457Z,15.57
2019-01-26T00:12:27.424Z,12.60
2019-01-26T00:15:07.731Z,13.63
2019-01-26T00:17:47.914Z,14.93
2019-01-26T00:20:28.065Z,15.97
2019-01-26T00:23:08.276Z,13.07
2019-01-26T00:25:48.328Z,14.27
2019-01-26T00:28:28.384Z,14.30
2019-01-26T00:31:08.771Z,13.80
2019-01-26T00:33:48.775Z,15.07
2019-01-26T00:36:28.709Z,16.30
2019-01-26T00:39:08.692Z,14.23
2019-01-26T00:41:48.636Z,14.93
2019-01-26T00:44:28.543Z,16.53
2019-01-26T00:47:09.060Z,14.93
2019-01-26T00:49:49.756Z,15.87
2019-01-26T00:52:33.637Z,16.07
2019-01-26T00:55:13.865Z,15.43
2019-01-26T00:57:41.538Z,15.93
2019-01-26T01:00:28.648Z,15.93
2019-01-26T01:03:06.950Z,16.73
2019-01-26T01:05:54.148Z,14.40
2019-01-26T01:08:34.632Z,14.77
2019-01-26T01:11:14.683Z,18.63
2019-01-26T01:13:54.784Z,15.23
2019-01-26T01:16:35.939Z,14.90
2019-01-26T01:19:15.993Z,13.57
2019-01-26T01:21:56.323Z,18.80
2019-01-26T01:24:36.170Z,15.23
2019-01-26T01:27:16.377Z,15.00
2019-01-26T01:29:56.420Z,14.13
2019-01-26T01:32:36.517Z,13.63
2019-01-26T01:35:16.652Z,15.93
2019-01-26T01:37:56.758Z,17.83
2019-01-26T01:40:36.594Z,15.63
2019-01-26T01:43:16.626Z,14.03
2019-01-26T01:45:57.125Z,16.70
2019-01-26T01:48:37.948Z,19.00
2019-01-26T01:51:18.007Z,18.47
2019-01-26T01:53:58.170Z,16.63
2019-01-26T01:56:38.352Z,18.63
2019-01-26T01:59:19.124Z,17.20
2019-01-26T02:01:59.100Z,15.47
2019-01-26T02:04:39.284Z,16.03
2019-01-26T02:07:19.725Z,15.17
2019-01-26T02:09:59.633Z,18.30
2019-01-26T02:12:39.577Z,15.23
2019-01-26T02:15:19.684Z,17.03
2019-01-26T02:17:59.842Z,15.00
2019-01-26T02:20:39.976Z,16.97
2019-01-26T02:23:20.245Z,18.20
2019-01-26T02:26:00.292Z,17.37
2019-01-26T02:28:40.265Z,14.93
2019-01-26T02:31:20.311Z,15.47
2019-01-26T02:34:00.542Z,18.13
2019-01-26T02:36:40.562Z,16.87
2019-01-26T02:39:20.893Z,15.67
2019-01-26T02:42:00.908Z,17.63
2019-01-26T02:44:44.121Z,17.93
2019-01-26T02:47:24.021Z,15.33
2019-01-26T02:50:04.255Z,16.50
2019-01-26T02:52:44.267Z,16.37
2019-01-26T02:55:24.593Z,15.90
2019-01-26T02:58:05.286Z,16.73
2019-01-26T03:00:45.441Z,17.97
2019-01-26T03:03:25.803Z,14.27
2019-01-26T03:06:05.653Z,17.23
2019-01-26T03:08:46.795Z,14.37
2019-01-26T03:11:26.812Z,14.47
2019-01-26T03:14:07.097Z,14.50
2019-01-26T03:16:47.044Z,14.77
2019-01-26T03:19:27.128Z,15.90
2019-01-26T03:22:07.169Z,14.00
2019-01-26T03:24:34.923Z,14.67
2019-01-26T03:27:15.336Z,15.53
2019-01-26T03:29:55.185Z,15.13
2019-01-26T03:32:35.519Z,13.37
2019-01-26T03:35:15.556Z,13.63
2019-01-26T03:37:58.600Z,15.60
2019-01-26T03:40:38.987Z,14.10
2019-01-26T03:43:19.056Z,14.13
2019-01-26T03:45:59.273Z,13.20
2019-01-26T03:48:39.411Z,14.87
2019-01-26T03:51:19.410Z,13.13
2019-01-26T03:53:59.516Z,13.30
2019-01-26T03:56:39.885Z,13.60
2019-01-26T03:59:19.630Z,14.50
2019-01-26T04:01:59.866Z,13.87
2019-01-26T04:04:39.763Z,10.90
2019-01-26T04:07:20.141Z,15.13
2019-01-26T04:10:00.955Z,11.17
2019-01-26T04:12:40.970Z,14.37
2019-01-26T04:15:21.097Z,14.47
2019-01-26T04:18:01.014Z,15.00
2019-01-26T04:20:41.365Z,15.17
2019-01-26T04:23:21.421Z,13.53
2019-01-26T04:26:01.822Z,11.97
2019-01-26T04:28:42.019Z,12.13
2019-01-26T04:31:20.113Z,12.97
2019-01-26T04:34:00.184Z,13.43
2019-01-26T04:36:40.345Z,13.57
2019-01-26T04:39:24.148Z,13.43
2019-01-26T04:42:05.078Z,14.70
2019-01-26T04:44:44.845Z,10.83
2019-01-26T04:47:30.903Z,11.97
2019-01-26T04:50:07.190Z,13.03
2019-01-26T04:52:47.850Z,10.83
2019-01-26T04:55:28.090Z,13.60
2019-01-26T04:58:08.057Z,12.17
2019-01-26T05:00:47.941Z,10.87
2019-01-26T05:03:28.122Z,11.13
2019-01-26T05:06:08.122Z,12.43
2019-01-26T05:08:48.238Z,12.10
2019-01-26T05:11:28.209Z,14.47
2019-01-26T05:14:08.249Z,13.53
2019-01-26T05:16:48.397Z,13.67
2019-01-26T05:19:28.449Z,11.87
2019-01-26T05:22:08.449Z,11.43
2019-01-26T05:24:48.418Z,14.83
2019-01-26T05:27:28.671Z,12.17
2019-01-26T05:30:08.765Z,12.07
2019-01-26T05:32:48.912Z,10.50
2019-01-26T05:35:29.068Z,10.40
2019-01-26T05:38:12.759Z,11.07
2019-01-26T05:40:53.403Z,11.67
2019-01-26T05:43:33.513Z,8.67
2019-01-26T05:46:13.656Z,13.27
2019-01-26T05:48:53.773Z,11.87
2019-01-26T05:51:34.355Z,11.23
2019-01-26T05:54:14.951Z,14.13
2019-01-26T05:56:55.103Z,10.93
2019-01-26T05:59:35.116Z,12.83
2019-01-26T06:02:15.027Z,10.70
2019-01-26T06:04:55.055Z,12.33
2019-01-26T06:07:35.252Z,11.20
2019-01-26T06:10:15.204Z,12.30
2019-01-26T06:12:55.860Z,13.83
2019-01-26T06:15:35.719Z,14.87
2019-01-26T06:18:16.993Z,13.30
2019-01-26T06:20:57.020Z,13.00
2019-01-26T06:23:37.242Z,11.50
2019-01-26T06:26:17.284Z,12.60
2019-01-26T06:28:57.157Z,11.13
2019-01-26T06:31:37.248Z,15.03
2019-01-26T06:34:17.428Z,12.70
2019-01-26T06:37:01.183Z,12.97
2019-01-26T06:39:41.811Z,11.80
2019-01-26T06:42:22.072Z,10.20
2019-01-26T06:45:01.761Z,12.03
2019-01-26T06:47:42.080Z,10.17
2019-01-26T06:50:24.016Z,11.40
2019-01-26T06:53:04.180Z,12.07
2019-01-26T06:55:44.585Z,9.77
2019-01-26T06:58:24.498Z,10.03
2019-01-26T07:01:04.625Z,11.47
2019-01-26T07:03:46.078Z,10.97
2019-01-26T07:06:32.078Z,11.47
2019-01-26T07:09:34.036Z,10.17
2019-01-26T07:12:14.145Z,9.93
2019-01-26T07:14:54.277Z,9.67
2019-01-26T07:17:34.500Z,8.20
2019-01-26T07:20:14.788Z,9.87
2019-01-26T07:22:54.829Z,9.43
2019-01-26T07:25:34.849Z,10.10
2019-01-26T07:28:15.215Z,8.97
2019-01-26T07:30:55.416Z,10.80
2019-01-26T07:33:35.270Z,9.90
2019-01-26T07:36:18.949Z,8.70
2019-01-26T07:38:59.244Z,8.47
2019-01-26T07:41:39.708Z,9.07
2019-01-26T07:44:19.528Z,8.17
2019-01-26T07:46:59.732Z,6.93
2019-01-26T07:49:39.421Z,6.83
2019-01-26T07:52:19.538Z,8.87
2019-01-26T07:55:00.408Z,7.90
2019-01-26T07:57:40.626Z,7.87
2019-01-26T08:00:20.845Z,7.50
2019-01-26T08:03:00.839Z,8.90
2019-01-26T08:05:40.901Z,8.20
2019-01-26T08:08:21.149Z,7.80
2019-01-26T08:11:01.138Z,7.80
2019-01-26T08:13:42.368Z,6.87
2019-01-26T08:16:22.294Z,7.57
2019-01-26T08:19:02.597Z,7.17
2019-01-26T08:21:43.279Z,9.77
2019-01-26T08:24:23.421Z,10.33
2019-01-26T08:27:03.544Z,8.10
2019-01-26T08:29:43.721Z,6.90
2019-01-26T08:32:23.778Z,8.00
2019-01-26T08:35:03.971Z,7.57
2019-01-26T08:37:44.147Z,7.90
2019-01-26T08:40:24.373Z,8.33
2019-01-26T08:42:52.016Z,7.80
2019-01-26T08:45:32.490Z,8.37
2019-01-26T08:48:12.512Z,8.83
2019-01-26T08:50:52.694Z,7.43
2019-01-26T08:53:33.184Z,6.70
2019-01-26T08:56:00.793Z,7.97
2019-01-26T08:58:41.213Z,8.73
2019-01-26T09:01:21.251Z,6.80
2019-01-26T09:04:23.128Z,9.33
2019-01-26T09:07:05.272Z,6.03
2019-01-26T09:09:46.000Z,5.93
2019-01-26T09:12:26.232Z,6.33
2019-01-26T09:15:06.328Z,6.63
2019-01-26T09:17:49.626Z,8.63
2019-01-26T09:20:29.722Z,7.23
2019-01-26T09:23:09.945Z,6.00
2019-01-26T09:25:49.950Z,7.47
2019-01-26T09:28:30.482Z,6.93
2019-01-26T09:31:10.378Z,5.70
2019-01-26T09:33:50.577Z,6.03
2019-01-26T09:36:30.608Z,5.77
2019-01-26T09:39:10.647Z,5.47
2019-01-26T09:41:50.686Z,6.27
2019-01-26T09:44:31.585Z,6.57
2019-01-26T09:47:11.909Z,5.93
2019-01-26T09:49:51.697Z,6.37
2019-01-26T09:52:31.773Z,7.10
2019-01-26T09:55:11.903Z,7.50
2019-01-26T09:57:52.106Z,6.87
2019-01-26T10:00:32.104Z,6.63
2019-01-26T10:03:12.105Z,6.00
2019-01-26T10:05:52.193Z,9.13
2019-01-26T10:08:32.332Z,6.23
2019-01-26T10:11:12.636Z,5.90
2019-01-26T10:13:52.671Z,8.17
2019-01-26T10:16:32.815Z,8.70
2019-01-26T10:19:12.834Z,7.30
2019-01-26T10:21:52.953Z,7.87
2019-01-26T10:24:33.261Z,8.00
2019-01-26T10:27:13.945Z,6.60
2019-01-26T10:29:41.701Z,7.43
2019-01-26T10:32:21.944Z,7.30
2019-01-26T10:35:01.978Z,7.97
2019-01-26T10:37:42.061Z,9.03
2019-01-26T10:40:41.567Z,7.70
2019-01-26T10:43:22.905Z,6.53
2019-01-26T10:45:50.615Z,7.20
2019-01-26T10:48:37.956Z,7.60
2019-01-26T10:51:18.236Z,7.70
2019-01-26T10:53:58.358Z,8.50
2019-01-26T10:56:38.466Z,7.43
2019-01-26T10:59:18.698Z,7.93
2019-01-26T11:01:58.833Z,8.87
2019-01-26T11:04:39.096Z,7.47
2019-01-26T11:07:20.082Z,8.57
2019-01-26T11:10:00.241Z,7.73
2019-01-26T11:12:40.531Z,8.73
2019-01-26T11:15:20.665Z,7.67
2019-01-26T11:18:00.813Z,8.17
2019-01-26T11:20:40.877Z,8.80
2019-01-26T11:23:21.073Z,7.60
2019-01-26T11:26:01.088Z,10.17
2019-01-26T11:28:41.425Z,8.60
2019-01-26T11:31:21.486Z,7.23
2019-01-26T11:34:01.497Z,7.97
2019-01-26T11:36:41.238Z,7.17
2019-01-26T11:39:21.721Z,7.80
2019-01-26T11:42:01.464Z,8.23
2019-01-26T11:45:01.017Z,6.47
2019-01-26T11:47:40.794Z,7.60
2019-01-26T11:50:27.286Z,7.10
2019-01-26T11:53:07.042Z,8.10
2019-01-26T11:56:06.434Z,7.03
2019-01-26T11:58:47.140Z,7.13
2019-01-26T12:01:53.040Z,6.83
2019-01-26T12:04:53.022Z,8.67
2019-01-26T12:07:35.110Z,8.17
2019-01-26T12:10:14.960Z,7.37
2019-01-26T12:12:55.078Z,7.53
2019-01-26T12:15:39.302Z,7.50
2019-01-26T12:18:19.541Z,6.50
2019-01-26T12:20:59.475Z,7.33
2019-01-26T12:23:39.873Z,7.77
2019-01-26T12:26:19.869Z,8.77
2019-01-26T12:29:00.062Z,8.30
2019-01-26T12:31:40.182Z,6.13
2019-01-26T12:34:20.388Z,7.23
2019-01-26T12:37:00.349Z,8.50
2019-01-26T12:39:40.215Z,8.40
2019-01-26T12:42:20.637Z,8.67
2019-01-26T12:45:00.733Z,7.30
2019-01-26T12:47:40.647Z,8.97
2019-01-26T12:50:20.552Z,9.87
2019-01-26T12:53:00.781Z,8.00
2019-01-26T12:55:40.826Z,9.23
2019-01-26T12:58:21.856Z,8.33
2019-01-26T13:01:02.005Z,7.37
2019-01-26T13:03:42.189Z,8.87
2019-01-26T13:06:22.328Z,8.03
2019-01-26T13:09:04.134Z,7.00
2019-01-26T13:11:46.514Z,9.10
2019-01-26T13:14:26.773Z,7.70
2019-01-26T13:17:07.510Z,7.50
2019-01-26T13:19:47.713Z,8.90
2019-01-26T13:22:27.664Z,8.90
2019-01-26T13:25:07.954Z,8.13
2019-01-26T13:27:48.106Z,8.83
2019-01-26T13:30:28.391Z,7.03
2019-01-26T13:33:08.663Z,8.53
2019-01-26T13:35:48.673Z,8.47
2019-01-26T13:38:28.857Z,8.73
2019-01-26T13:41:09.267Z,8.73
2019-01-26T13:43:49.056Z,9.27
2019-01-26T13:46:29.262Z,8.10
2019-01-26T13:49:09.577Z,9.07
2019-01-26T13:51:37.357Z,7.03
2019-01-26T13:54:17.657Z,10.90
2019-01-26T13:56:57.869Z,8.30
2019-01-26T13:59:38.116Z,7.87
2019-01-26T14:02:18.272Z,6.57
2019-01-26T14:04:58.308Z,7.23
2019-01-26T14:07:38.317Z,7.60
2019-01-26T14:10:18.260Z,6.47
2019-01-26T14:12:58.629Z,7.97
2019-01-26T14:15:38.889Z,8.70
2019-01-26T14:18:18.837Z,7.20
2019-01-26T14:20:58.996Z,8.40
2019-01-26T14:23:39.109Z,7.10
2019-01-26T14:26:19.429Z,7.97
2019-01-26T14:28:59.331Z,7.40
2019-01-26T14:31:39.481Z,6.77
2019-01-26T14:34:19.525Z,8.47
2019-01-26T14:36:59.974Z,7.47
2019-01-26T14:39:40.697Z,7.00
2019-01-26T14:42:20.900Z,8.53
2019-01-26T14:45:01.279Z,7.37
2019-01-26T14:47:41.238Z,7.13
2019-01-26T14:50:21.410Z,9.17
2019-01-26T14:53:01.513Z,8.47
2019-01-26T14:55:41.513Z,7.80
2019-01-26T14:58:22.094Z,7.70
2019-01-26T15:01:02.177Z,8.50
2019-01-26T15:03:42.566Z,11.43
2019-01-26T15:06:22.531Z,9.10
2019-01-26T15:09:04.604Z,7.60
2019-01-26T15:11:45.071Z,9.93
2019-01-26T15:14:25.496Z,8.07
2019-01-26T15:17:06.265Z,6.60
2019-01-26T15:19:46.480Z,10.37
2019-01-26T15:22:26.514Z,8.17
2019-01-26T15:25:06.659Z,8.20
2019-01-26T15:27:46.874Z,7.83
2019-01-26T15:30:27.162Z,7.50
2019-01-26T15:33:07.309Z,8.57
2019-01-26T15:35:48.350Z,8.40
2019-01-26T15:38:29.409Z,6.57
2019-01-26T15:41:09.165Z,8.43
2019-01-26T15:43:49.287Z,9.67
2019-01-26T15:46:29.463Z,7.80
2019-01-26T15:49:09.558Z,7.53
2019-01-26T15:51:49.481Z,7.37
2019-01-26T15:54:29.453Z,9.70
2019-01-26T15:57:09.804Z,9.70
2019-01-26T15:59:53.485Z,7.07
2019-01-26T16:02:31.665Z,9.03
2019-01-26T16:05:11.808Z,7.03
2019-01-26T16:08:11.350Z,7.43
2019-01-26T16:10:51.228Z,8.17
2019-01-26T16:32:13.354Z,7.13
2019-01-26T16:35:12.957Z,9.40
2019-01-26T16:48:33.569Z,6.87
2019-01-26T16:51:33.216Z,7.93
2019-01-26T16:57:55.641Z,11.70
2019-01-26T17:00:55.041Z,6.60
2019-01-26T17:25:06.731Z,5.60
2019-01-26T17:28:06.210Z,6.07
2019-01-26T17:38:23.167Z,6.57
2019-01-26T17:41:22.786Z,6.37
2019-01-26T17:58:26.271Z,4.53
2019-01-26T18:01:25.741Z,7.07
2019-01-26T18:25:30.251Z,5.20
2019-01-26T18:28:29.780Z,5.53
2019-01-26T18:34:52.269Z,5.53
2019-01-26T18:37:19.945Z,4.70
2019-01-26T18:51:19.554Z,4.77
2019-01-26T18:53:47.349Z,5.73
2019-01-26T18:56:53.936Z,5.13
2019-01-26T19:14:10.757Z,5.77
2019-01-26T19:17:10.586Z,5.10
2019-01-26T19:40:41.183Z,5.70
2019-01-26T19:46:37.878Z,6.27
2019-01-26T19:49:05.707Z,4.80
2019-01-26T19:51:33.537Z,5.30
2019-01-26T19:54:01.307Z,4.77
2019-01-26T19:56:29.091Z,4.27
2019-01-26T19:58:56.826Z,5.57
2019-01-26T20:01:24.510Z,4.93
2019-01-26T20:34:08.033Z,2.70
2019-01-26T20:36:48.349Z,3.37
2019-01-26T21:05:40.345Z,2.70
2019-01-26T21:59:35.073Z,3.27
2019-01-26T22:02:15.280Z,3.67
2019-01-26T22:04:58.781Z,4.23
2019-01-26T22:07:38.800Z,3.30
2019-01-26T22:10:19.019Z,3.63
2019-01-26T22:12:59.217Z,3.63
2019-01-26T22:15:39.280Z,2.53
2019-01-26T22:18:19.514Z,2.53
2019-01-26T22:21:00.029Z,2.47
2019-01-26T22:23:39.913Z,1.93
2019-01-26T22:26:20.104Z,2.17
2019-01-26T22:29:00.273Z,1.90
2019-01-26T22:31:40.538Z,2.83
2019-01-26T22:34:22.762Z,1.87
2019-01-26T22:37:03.083Z,3.43
2019-01-26T22:39:43.154Z,3.20
2019-01-26T22:42:23.322Z,2.40
2019-01-26T22:45:03.541Z,2.10
2019-01-26T22:47:43.480Z,3.27
2019-01-26T22:50:23.645Z,2.53
2019-01-26T22:53:03.924Z,3.33
2019-01-26T22:55:43.863Z,2.30
2019-01-26T22:58:23.951Z,1.77
2019-01-26T23:01:04.113Z,3.63
2019-01-26T23:03:48.364Z,3.87
2019-01-26T23:06:28.117Z,2.30
2019-01-26T23:09:08.989Z,1.87
2019-01-26T23:11:49.338Z,2.00
2019-01-26T23:14:30.921Z,2.27
2019-01-26T23:17:10.839Z,1.93
2019-01-26T23:19:50.997Z,2.03
2019-01-26T23:22:31.440Z,2.40
2019-01-26T23:25:11.537Z,2.87
2019-01-26T23:27:51.702Z,2.00
2019-01-26T23:30:31.806Z,2.13
2019-01-26T23:33:12.148Z,1.80
2019-01-26T23:35:52.329Z,2.03
2019-01-26T23:38:33.006Z,1.50
2019-01-26T23:41:13.329Z,1.20
2019-01-26T23:43:53.715Z,3.13
2019-01-26T23:46:21.515Z,2.43
2019-01-26T23:49:02.077Z,1.13
2019-01-26T23:51:42.152Z,2.40
2019-01-26T23:54:22.160Z,3.30
2019-01-26T23:57:02.552Z,1.37
2019-01-26T23:59:42.470Z,2.43
